createdAt,value
2022-08-18T00:01:28.754Z,94.80
2022-08-18T00:04:03.554Z,94.20
2022-08-18T00:06:44.626Z,94.40
2022-08-18T00:09:13.400Z,94.70
2022-08-18T00:11:56.551Z,94.60
2022-08-18T00:14:23.556Z,94.90
2022-08-18T00:16:53.089Z,95.10
2022-08-18T00:19:46.802Z,95.40
2022-08-18T00:22:16.112Z,95.40
2022-08-18T00:24:49.842Z,95.30
2022-08-18T00:27:28.519Z,95.20
2022-08-18T00:30:06.002Z,95.20
2022-08-18T00:33:14.462Z,95.30
2022-08-18T00:35:52.228Z,95.20
2022-08-18T00:38:24.481Z,95.00
2022-08-18T00:40:54.577Z,94.90
2022-08-18T00:43:45.844Z,94.70
2022-08-18T00:46:32.491Z,95.20
2022-08-18T00:49:03.782Z,95.00
2022-08-18T00:51:50.466Z,95.30
2022-08-18T00:54:54.790Z,95.40
2022-08-18T00:57:25.001Z,95.20
2022-08-18T01:00:04.439Z,95.50
2022-08-18T01:02:42.632Z,95.60
2022-08-18T01:05:14.963Z,95.40
2022-08-18T01:07:48.911Z,95.40
2022-08-18T01:10:23.145Z,95.50
2022-08-18T01:12:58.771Z,95.20
2022-08-18T01:15:30.529Z,95.10
2022-08-18T01:18:31.609Z,94.90
2022-08-18T01:21:37.986Z,94.80
2022-08-18T01:24:22.564Z,94.50
2022-08-18T01:26:50.996Z,94.50
2022-08-18T01:29:20.186Z,94.30
2022-08-18T01:32:01.505Z,94.30
2022-08-18T01:34:31.135Z,94.30
2022-08-18T01:37:05.431Z,95.10
2022-08-18T01:40:59.588Z,95.80
2022-08-18T01:42:26.692Z,96.20
2022-08-18T01:44:55.401Z,96.50
2022-08-18T01:47:48.444Z,96.60
2022-08-18T01:50:19.519Z,96.50
2022-08-18T01:52:49.986Z,96.50
2022-08-18T01:55:21.509Z,96.80
2022-08-18T01:57:51.927Z,96.90
2022-08-18T02:00:19.956Z,97.00
2022-08-18T02:03:01.608Z,97.00
2022-08-18T02:05:45.145Z,97.60
2022-08-18T02:08:17.943Z,98.70
2022-08-18T02:10:47.962Z,99.60
2022-08-18T02:13:18.401Z,99.90
2022-08-18T02:15:47.774Z,99.90
2022-08-18T02:18:43.541Z,99.90
2022-08-18T02:21:14.730Z,99.90
2022-08-18T02:23:53.640Z,99.90
2022-08-18T02:26:28.087Z,99.90
2022-08-18T02:28:56.490Z,99.90
2022-08-18T02:31:27.006Z,99.90
2022-08-18T02:33:59.535Z,99.90
2022-08-18T02:36:29.398Z,99.90
2022-08-18T02:39:00.057Z,99.90
2022-08-18T02:41:32.537Z,99.90
2022-08-18T02:44:00.216Z,99.90
2022-08-18T02:46:31.349Z,99.90
2022-08-18T02:49:03.402Z,99.90
2022-08-18T02:51:39.426Z,99.90
2022-08-18T02:54:11.820Z,99.90
2022-08-18T02:56:42.358Z,99.90
2022-08-18T02:59:15.786Z,99.90
2022-08-18T03:01:52.837Z,99.90
2022-08-18T03:04:30.593Z,99.90
2022-08-18T03:07:03.051Z,99.90
2022-08-18T03:09:34.116Z,99.90
2022-08-18T03:12:14.161Z,99.90
2022-08-18T03:14:43.940Z,99.90
2022-08-18T03:17:17.940Z,99.90
2022-08-18T03:19:49.367Z,99.90
2022-08-18T03:22:28.578Z,99.90
2022-08-18T03:24:59.320Z,99.90
2022-08-18T03:27:27.978Z,99.90
2022-08-18T03:29:56.700Z,99.90
2022-08-18T03:32:28.116Z,99.90
2022-08-18T03:34:56.946Z,99.90
2022-08-18T03:37:27.297Z,99.90
2022-08-18T03:39:58.447Z,99.90
2022-08-18T03:42:27.830Z,99.90
2022-08-18T03:44:56.643Z,99.90
2022-08-18T03:47:25.219Z,99.90
2022-08-18T03:50:02.844Z,99.90
2022-08-18T03:52:30.705Z,99.90
2022-08-18T03:55:00.816Z,99.90
2022-08-18T03:57:38.409Z,99.90
2022-08-18T04:00:12.946Z,99.90
2022-08-18T04:02:40.820Z,99.90
2022-08-18T04:05:14.745Z,99.90
2022-08-18T04:07:43.117Z,99.90
2022-08-18T04:10:19.204Z,99.90
2022-08-18T04:12:48.115Z,99.90
2022-08-18T04:15:18.224Z,99.90
2022-08-18T04:18:03.548Z,99.90
2022-08-18T04:20:36.861Z,99.90
2022-08-18T04:23:08.185Z,99.90
2022-08-18T04:25:35.812Z,99.90
2022-08-18T04:28:04.054Z,99.90
2022-08-18T04:30:33.015Z,99.90
2022-08-18T04:33:02.606Z,99.90
2022-08-18T04:35:31.414Z,99.90
2022-08-18T04:38:01.177Z,99.90
2022-08-18T04:40:31.941Z,99.90
2022-08-18T04:43:04.104Z,99.90
2022-08-18T04:45:33.564Z,99.90
2022-08-18T04:48:05.650Z,99.90
2022-08-18T04:50:38.443Z,99.90
2022-08-18T04:53:25.350Z,99.90
2022-08-18T04:55:55.023Z,99.90
2022-08-18T04:58:33.420Z,99.90
2022-08-18T05:01:02.408Z,99.90
2022-08-18T05:03:34.910Z,99.90
2022-08-18T05:06:07.732Z,99.90
2022-08-18T05:08:36.426Z,99.90
2022-08-18T05:11:05.231Z,99.90
2022-08-18T05:13:36.569Z,99.90
2022-08-18T05:16:11.147Z,99.90
2022-08-18T05:18:43.300Z,99.90
2022-08-18T05:21:16.966Z,99.90
2022-08-18T05:23:48.562Z,99.90
2022-08-18T05:26:20.662Z,99.90
2022-08-18T05:28:49.902Z,99.90
2022-08-18T05:31:32.577Z,99.90
2022-08-18T05:34:06.940Z,99.90
2022-08-18T05:37:03.735Z,99.90
2022-08-18T05:40:10.376Z,99.90
2022-08-18T05:42:47.985Z,99.90
2022-08-18T05:45:18.940Z,99.90
2022-08-18T05:47:48.558Z,99.90
2022-08-18T05:50:20.921Z,99.90
2022-08-18T05:53:05.576Z,99.90
2022-08-18T05:56:25.671Z,99.90
2022-08-18T05:58:55.935Z,99.90
2022-08-18T06:01:30.945Z,99.00
2022-08-18T06:04:22.035Z,98.70
2022-08-18T06:06:52.335Z,98.10
2022-08-18T06:09:37.841Z,97.80
2022-08-18T06:12:17.489Z,97.30
2022-08-18T06:14:45.740Z,97.40
2022-08-18T06:17:40.219Z,97.60
2022-08-18T06:20:56.275Z,97.10
2022-08-18T06:23:45.064Z,97.70
2022-08-18T06:26:26.300Z,96.30
2022-08-18T06:29:13.316Z,96.10
2022-08-18T06:32:10.423Z,95.60
2022-08-18T06:34:57.100Z,95.90
2022-08-18T06:38:10.098Z,95.30
2022-08-18T06:40:38.749Z,95.00
2022-08-18T06:43:22.226Z,94.60
2022-08-18T06:45:52.666Z,95.20
2022-08-18T06:48:53.090Z,94.90
2022-08-18T06:51:27.505Z,94.10
2022-08-18T06:54:08.385Z,94.90
2022-08-18T06:56:43.286Z,94.10
2022-08-18T06:59:31.451Z,94.40
2022-08-18T07:02:31.501Z,95.20
2022-08-18T07:05:29.022Z,96.10
2022-08-18T07:08:20.095Z,94.70
2022-08-18T07:10:51.830Z,94.10
2022-08-18T07:13:33.157Z,93.60
2022-08-18T07:16:40.563Z,92.70
2022-08-18T07:19:24.802Z,92.90
2022-08-18T07:22:09.421Z,92.40
2022-08-18T07:24:51.750Z,92.50
2022-08-18T07:27:48.144Z,92.50
2022-08-18T07:30:54.630Z,92.70
2022-08-18T07:33:31.146Z,91.90
2022-08-18T07:36:10.325Z,91.50
2022-08-18T07:39:04.019Z,91.10
2022-08-18T07:41:41.959Z,90.30
2022-08-18T07:44:22.850Z,89.90
2022-08-18T07:47:01.294Z,89.30
2022-08-18T07:49:37.054Z,88.80
2022-08-18T07:52:43.834Z,85.90
2022-08-18T07:55:38.735Z,88.00
2022-08-18T07:58:43.380Z,80.30
2022-08-18T08:01:35.265Z,85.60
2022-08-18T08:04:41.209Z,88.40
2022-08-18T08:07:28.980Z,89.20
2022-08-18T08:10:27.459Z,87.00
2022-08-18T08:13:55.382Z,87.20
2022-08-18T08:16:31.950Z,85.50
2022-08-18T08:19:42.529Z,85.80
2022-08-18T08:22:36.164Z,83.90
2022-08-18T08:25:45.811Z,85.40
2022-08-18T08:28:55.576Z,85.10
2022-08-18T08:31:58.119Z,85.10
2022-08-18T08:35:05.114Z,80.70
2022-08-18T08:38:36.708Z,80.00
2022-08-18T08:41:16.679Z,77.50
2022-08-18T08:44:06.716Z,78.10
2022-08-18T08:47:02.841Z,79.30
2022-08-18T08:50:00.760Z,80.80
2022-08-18T08:52:56.849Z,80.80
2022-08-18T08:55:29.574Z,79.10
2022-08-18T08:58:17.669Z,78.40
2022-08-18T09:00:58.850Z,75.30
2022-08-18T09:04:03.551Z,76.40
2022-08-18T09:07:09.085Z,75.90
2022-08-18T09:10:30.124Z,76.10
2022-08-18T09:13:30.444Z,73.20
2022-08-18T09:16:37.015Z,72.60
2022-08-18T09:19:41.305Z,72.30
2022-08-18T09:22:10.985Z,71.40
2022-08-18T09:24:58.520Z,72.20
2022-08-18T09:28:10.306Z,74.10
2022-08-18T09:31:19.443Z,71.20
2022-08-18T09:34:31.421Z,71.60
2022-08-18T09:37:41.455Z,73.40
2022-08-18T09:41:01.870Z,74.70
2022-08-18T09:43:55.881Z,70.50
2022-08-18T09:46:44.757Z,72.80
2022-08-18T09:49:27.207Z,70.50
2022-08-18T09:52:03.222Z,73.00
2022-08-18T09:54:48.895Z,73.80
2022-08-18T09:57:21.685Z,71.30
2022-08-18T10:00:15.572Z,71.60
2022-08-18T10:02:49.589Z,69.10
2022-08-18T10:05:32.191Z,72.30
2022-08-18T10:08:29.969Z,71.50
2022-08-18T10:11:39.535Z,71.60
2022-08-18T10:14:28.396Z,70.90
2022-08-18T10:20:28.275Z,69.90
2022-08-18T10:22:58.000Z,69.20
2022-08-18T10:25:49.424Z,69.40
2022-08-18T10:29:07.040Z,71.40
2022-08-18T10:32:00.006Z,70.30
2022-08-18T10:34:52.197Z,70.20
2022-08-18T10:37:32.739Z,71.40
2022-08-18T10:46:34.988Z,69.90
2022-08-18T10:49:25.738Z,74.10
2022-08-18T10:52:24.405Z,71.50
2022-08-18T10:55:12.996Z,72.70
2022-08-18T10:58:19.969Z,72.40
2022-08-18T11:01:13.340Z,74.70
2022-08-18T11:04:32.729Z,72.90
2022-08-18T11:07:30.880Z,72.80
2022-08-18T11:13:25.610Z,69.20
2022-08-18T11:16:04.790Z,70.10
2022-08-18T11:19:09.850Z,71.10
2022-08-18T11:24:43.853Z,70.00
2022-08-18T11:27:24.234Z,68.50
2022-08-18T11:29:55.394Z,69.20
2022-08-18T11:32:41.858Z,68.50
2022-08-18T11:35:32.159Z,69.60
2022-08-18T11:41:48.091Z,69.90
2022-08-18T11:44:37.625Z,70.20
2022-08-18T11:47:27.930Z,70.30
2022-08-18T11:50:13.368Z,67.80
2022-08-18T11:52:54.749Z,67.50
2022-08-18T11:55:36.988Z,66.90
2022-08-18T11:58:12.680Z,66.80
2022-08-18T12:00:54.964Z,66.70
2022-08-18T12:03:51.458Z,69.00
2022-08-18T12:06:26.605Z,67.20
2022-08-18T12:09:09.453Z,68.90
2022-08-18T12:11:52.298Z,66.60
2022-08-18T12:14:35.526Z,67.00
2022-08-18T12:17:11.187Z,68.20
2022-08-18T12:19:46.843Z,65.70
2022-08-18T12:22:23.684Z,67.00
2022-08-18T12:24:59.214Z,66.90
2022-08-18T12:27:34.004Z,66.60
2022-08-18T12:30:16.468Z,68.50
2022-08-18T12:33:00.867Z,68.80
2022-08-18T12:35:35.241Z,69.30
2022-08-18T12:38:12.298Z,71.00
2022-08-18T12:40:43.138Z,70.60
2022-08-18T12:43:15.550Z,69.50
2022-08-18T12:45:48.942Z,67.80
2022-08-18T12:48:16.607Z,68.30
2022-08-18T12:50:54.147Z,69.10
2022-08-18T12:53:29.497Z,69.40
2022-08-18T12:59:12.521Z,68.60
2022-08-18T13:01:50.282Z,69.70
2022-08-18T13:04:29.141Z,71.10
2022-08-18T13:07:13.070Z,69.40
2022-08-18T13:09:53.843Z,70.50
2022-08-18T13:12:27.381Z,70.70
2022-08-18T13:15:04.143Z,70.40
2022-08-18T13:17:41.539Z,71.00
2022-08-18T13:20:20.945Z,71.10
2022-08-18T13:22:51.803Z,71.50
2022-08-18T13:25:38.388Z,71.00
2022-08-18T13:28:17.045Z,71.70
2022-08-18T13:30:55.581Z,70.90
2022-08-18T13:33:57.393Z,69.70
2022-08-18T13:36:24.397Z,70.40
2022-08-18T13:38:59.871Z,69.10
2022-08-18T13:41:32.555Z,68.70
2022-08-18T13:44:01.507Z,68.70
2022-08-18T13:46:31.684Z,68.80
2022-08-18T13:49:03.593Z,68.10
2022-08-18T13:51:32.614Z,68.20
2022-08-18T13:54:30.454Z,68.30
2022-08-18T13:56:52.372Z,68.40
2022-08-18T13:59:25.046Z,68.80
2022-08-18T14:01:54.488Z,69.50
2022-08-18T14:04:27.723Z,69.40
2022-08-18T14:07:10.943Z,68.40
2022-08-18T14:09:42.313Z,68.90
2022-08-18T14:12:33.661Z,69.50
2022-08-18T14:15:02.729Z,67.00
2022-08-18T14:17:32.530Z,68.80
2022-08-18T14:20:21.672Z,73.00
2022-08-18T14:23:12.760Z,76.70
2022-08-18T14:26:03.279Z,79.90
2022-08-18T14:28:43.394Z,84.50
2022-08-18T14:31:20.554Z,86.50
2022-08-18T14:33:53.489Z,90.80
2022-08-18T14:36:30.087Z,91.00
2022-08-18T14:39:04.529Z,91.70
2022-08-18T14:41:32.564Z,91.30
2022-08-18T14:44:13.180Z,92.10
2022-08-18T14:46:52.118Z,91.70
2022-08-18T14:49:29.297Z,93.10
2022-08-18T14:52:00.372Z,93.40
2022-08-18T14:54:30.111Z,94.00
2022-08-18T14:57:08.028Z,94.70
2022-08-18T14:59:39.139Z,94.50
2022-08-18T15:02:13.234Z,94.80
2022-08-18T15:04:55.866Z,94.50
2022-08-18T15:07:27.585Z,94.90
2022-08-18T15:10:14.463Z,93.90
2022-08-18T15:12:44.990Z,94.20
2022-08-18T15:15:22.556Z,94.40
2022-08-18T15:17:53.058Z,94.00
2022-08-18T15:20:29.114Z,93.20
2022-08-18T15:23:25.020Z,93.60
2022-08-18T15:26:00.304Z,93.10
2022-08-18T15:28:37.883Z,92.80
2022-08-18T15:31:17.705Z,92.40
2022-08-18T15:33:51.514Z,92.30
2022-08-18T15:36:29.169Z,92.80
2022-08-18T15:39:02.099Z,93.10
2022-08-18T15:41:44.675Z,92.60
2022-08-18T15:44:15.357Z,93.10
2022-08-18T15:46:51.224Z,93.50
2022-08-18T15:49:23.418Z,93.40
2022-08-18T15:51:50.892Z,93.60
2022-08-18T15:54:23.715Z,93.60
2022-08-18T15:56:58.222Z,93.80
2022-08-18T15:59:40.027Z,93.50
2022-08-18T16:02:11.727Z,93.40
2022-08-18T16:04:53.478Z,93.60
2022-08-18T16:07:39.915Z,93.80
2022-08-18T16:10:20.854Z,93.80
2022-08-18T16:12:50.014Z,94.30
2022-08-18T16:15:27.719Z,94.60
2022-08-18T16:17:57.286Z,94.30
2022-08-18T16:20:33.578Z,94.20
2022-08-18T16:23:06.026Z,94.10
2022-08-18T16:25:39.836Z,94.80
2022-08-18T16:28:08.337Z,94.40
2022-08-18T16:30:36.968Z,94.40
2022-08-18T16:33:07.407Z,94.70
2022-08-18T16:35:37.449Z,94.70
2022-08-18T16:38:11.229Z,95.90
2022-08-18T16:40:49.834Z,96.80
2022-08-18T16:43:25.874Z,97.30
2022-08-18T16:45:55.959Z,97.50
2022-08-18T16:50:58.055Z,98.10
2022-08-18T16:53:27.956Z,98.90
2022-08-18T16:56:18.140Z,99.30
2022-08-18T16:59:07.138Z,99.10
2022-08-18T17:01:59.833Z,99.10
2022-08-18T17:04:36.156Z,99.00
2022-08-18T17:07:13.608Z,98.60
2022-08-18T17:09:43.280Z,98.40
2022-08-18T17:12:12.923Z,98.60
2022-08-18T17:14:41.602Z,98.80
2022-08-18T17:17:10.046Z,98.80
2022-08-18T17:19:40.077Z,99.10
2022-08-18T17:22:17.155Z,99.60
2022-08-18T17:24:50.491Z,99.90
2022-08-18T17:27:37.255Z,99.90
2022-08-18T17:30:17.785Z,99.90
2022-08-18T17:33:04.767Z,99.90
2022-08-18T17:35:39.026Z,99.90
2022-08-18T17:38:36.868Z,99.90
2022-08-18T17:41:14.568Z,99.90
2022-08-18T17:46:49.518Z,99.90
2022-08-18T17:49:54.230Z,99.90
2022-08-18T17:53:02.034Z,99.90
2022-08-18T17:55:41.889Z,99.90
2022-08-18T17:58:40.936Z,99.90
2022-08-18T18:01:15.552Z,99.90
2022-08-18T18:03:46.350Z,99.90
2022-08-18T18:06:33.995Z,99.90
2022-08-18T18:09:33.722Z,99.90
2022-08-18T18:12:29.389Z,99.90
2022-08-18T18:15:08.264Z,99.90
2022-08-18T18:17:42.400Z,99.90
2022-08-18T18:20:46.197Z,99.90
2022-08-18T18:23:23.004Z,99.90
2022-08-18T18:25:52.400Z,99.90
2022-08-18T18:28:33.800Z,99.90
2022-08-18T18:31:29.474Z,99.90
2022-08-18T18:34:04.310Z,99.90
2022-08-18T18:36:47.750Z,99.90
2022-08-18T18:39:34.392Z,99.90
2022-08-18T18:42:30.049Z,99.90
2022-08-18T18:45:09.596Z,99.90
2022-08-18T18:48:07.246Z,99.90
2022-08-18T18:50:59.953Z,99.90
2022-08-18T18:54:06.587Z,99.90
2022-08-18T18:57:12.672Z,99.90
2022-08-18T19:00:25.989Z,99.90
2022-08-18T19:03:25.746Z,99.90
2022-08-18T19:06:33.475Z,99.90
2022-08-18T19:09:30.601Z,99.90
2022-08-18T19:12:23.146Z,99.90
2022-08-18T19:15:17.721Z,99.90
2022-08-18T19:17:52.041Z,99.90
2022-08-18T19:20:28.843Z,99.90
2022-08-18T19:23:44.563Z,99.90
2022-08-18T19:26:28.346Z,99.90
2022-08-18T19:29:12.294Z,99.90
2022-08-18T19:32:03.194Z,99.90
2022-08-18T19:34:37.306Z,99.90
2022-08-18T19:37:40.400Z,99.90
2022-08-18T19:40:37.262Z,99.90
2022-08-18T19:43:32.041Z,99.90
2022-08-18T19:46:13.427Z,99.90
2022-08-18T19:49:12.237Z,99.90
2022-08-18T19:51:42.606Z,99.90
2022-08-18T19:54:45.001Z,99.90
2022-08-18T19:57:43.721Z,99.90
2022-08-18T20:00:31.622Z,99.90
2022-08-18T20:03:34.106Z,99.90
2022-08-18T20:06:47.362Z,99.90
2022-08-18T20:09:52.126Z,99.90
2022-08-18T20:12:40.981Z,99.90
2022-08-18T20:15:25.496Z,99.90
2022-08-18T20:18:03.511Z,99.90
2022-08-18T20:20:42.116Z,99.90
2022-08-18T20:24:02.390Z,99.90
2022-08-18T20:26:43.092Z,99.90
2022-08-18T20:29:39.261Z,99.90
2022-08-18T20:32:34.610Z,99.90
2022-08-18T20:35:27.968Z,99.90
2022-08-18T20:38:31.901Z,99.90
2022-08-18T20:41:21.760Z,99.90
2022-08-18T20:44:00.420Z,99.90
2022-08-18T20:46:41.382Z,99.90
2022-08-18T20:49:49.601Z,99.90
2022-08-18T20:52:47.521Z,99.90
2022-08-18T20:55:37.587Z,99.90
2022-08-18T20:58:19.871Z,99.90
2022-08-18T21:00:55.966Z,99.90
2022-08-18T21:03:44.780Z,99.90
2022-08-18T21:06:19.166Z,99.90
2022-08-18T21:08:55.114Z,99.90
2022-08-18T21:11:32.138Z,99.90
2022-08-18T21:14:04.005Z,99.90
2022-08-18T21:16:57.805Z,99.90
2022-08-18T21:19:29.181Z,99.90
2022-08-18T21:22:11.120Z,99.90
2022-08-18T21:24:44.779Z,99.90
2022-08-18T21:27:31.686Z,99.90
2022-08-18T21:30:07.546Z,99.90
2022-08-18T21:32:37.374Z,99.90
2022-08-18T21:35:39.844Z,99.90
2022-08-18T21:38:16.685Z,99.90
2022-08-18T21:40:48.079Z,99.90
2022-08-18T21:47:07.029Z,99.90
2022-08-18T21:49:35.519Z,99.90
2022-08-18T21:52:05.220Z,99.90
2022-08-18T21:54:34.825Z,99.90
2022-08-18T21:57:47.958Z,99.90
2022-08-18T22:00:37.456Z,99.90
2022-08-18T22:03:29.993Z,99.90
2022-08-18T22:06:33.501Z,99.90
2022-08-18T22:09:35.684Z,99.90
2022-08-18T22:13:04.898Z,99.90
2022-08-18T22:15:49.962Z,99.90
2022-08-18T22:18:41.118Z,99.90
2022-08-18T22:21:44.343Z,99.90
2022-08-18T22:24:36.843Z,99.90
2022-08-18T22:27:23.983Z,99.90
2022-08-18T22:30:06.598Z,99.90
2022-08-18T22:32:46.266Z,99.90
2022-08-18T22:35:14.979Z,99.90
2022-08-18T22:37:50.611Z,99.90
2022-08-18T22:40:21.606Z,99.90
2022-08-18T22:42:57.998Z,99.90
2022-08-18T22:45:25.062Z,99.90
2022-08-18T22:47:53.378Z,99.90
2022-08-18T22:50:25.068Z,99.90
2022-08-18T22:52:53.959Z,99.90
2022-08-18T22:55:30.044Z,99.90
2022-08-18T22:57:59.663Z,99.90
2022-08-18T23:00:30.608Z,99.90
2022-08-18T23:02:59.748Z,99.90
2022-08-18T23:05:31.072Z,99.90
2022-08-18T23:08:00.439Z,99.90
2022-08-18T23:10:30.141Z,99.90
2022-08-18T23:13:04.078Z,99.90
2022-08-18T23:16:30.942Z,99.90
2022-08-18T23:18:50.003Z,99.90
2022-08-18T23:21:34.923Z,99.90
2022-08-18T23:24:09.382Z,99.90
2022-08-18T23:26:37.178Z,99.90
2022-08-18T23:29:10.423Z,99.90
2022-08-18T23:31:44.253Z,99.90
2022-08-18T23:34:19.084Z,99.90
2022-08-18T23:37:01.238Z,99.90
2022-08-18T23:39:32.324Z,99.90
2022-08-18T23:42:02.236Z,99.90
2022-08-18T23:44:30.254Z,99.90
2022-08-18T23:47:01.123Z,99.90
2022-08-18T23:49:30.593Z,99.90
2022-08-18T23:52:08.221Z,99.90
2022-08-18T23:54:36.088Z,99.90
2022-08-18T23:57:08.093Z,99.90
2022-08-18T23:59:35.183Z,99.90
